This is the latest recevied weather packets stored in our database for station/object EA1HTW-13. If no packets are shown the sender has not sent any weather packets the latest 10 day(s).
| Time | Temp. | Humidity | Pressure | Rain* | Wind** | Luminosity | Snow |
|---|---|---|---|---|---|---|---|
| 1777296203 | 27.78° C | 43% | 1006.9 hPa | 0 mm | - | - | - |
| 1777295663 | 27.22° C | 49% | 1007 hPa | 0 mm | - | - | - |
| 1777295123 | 26.67° C | 49% | 1006.9 hPa | 0 mm | - | - | - |
| 1777294582 | 26.67° C | 49% | 1007.2 hPa | 0 mm | - | - | - |
| 1777294043 | 26.11° C | 51% | 1007.2 hPa | 0 mm | - | - | - |
| 1777293502 | 25° C | 54% | 1007.2 hPa | 0 mm | - | - | - |
| 1777292963 | 25° C | 53% | 1007.5 hPa | 0 mm | - | - | - |
| 1777292423 | 25° C | 54% | 1007.4 hPa | 0 mm | - | - | - |
| 1777291884 | 24.44° C | 53% | 1007.5 hPa | 0 mm | - | - | - |
| 1777291342 | 24.44° C | 53% | 1007.7 hPa | 0 mm | - | - | - |
| 1777290802 | 23.89° C | 55% | 1007.9 hPa | 0 mm | - | - | - |
| 1777290263 | 23.33° C | 55% | 1007.9 hPa | 0 mm | - | - | - |
| 1777289723 | 23.33° C | 55% | 1007.9 hPa | 0 mm | - | - | - |
| 1777289182 | 23.33° C | 55% | 1008 hPa | 0 mm | - | - | - |
| 1777288643 | 23.33° C | 55% | 1008.1 hPa | 0 mm | - | - | - |
| 1777288103 | 23.33° C | 55% | 1008.1 hPa | 0 mm | - | - | - |
| 1777287564 | 23.33° C | 55% | 1008.1 hPa | 0 mm | - | - | - |
| 1777287023 | 23.33° C | 54% | 1008.2 hPa | 0 mm | - | - | - |
| 1777286483 | 23.33° C | 55% | 1008.4 hPa | 0 mm | - | - | - |
| 1777285943 | 23.33° C | 54% | 1008.3 hPa | 0 mm | - | - | - |
| 1777285403 | 23.33° C | 55% | 1008.4 hPa | 0 mm | - | - | - |
| 1777284864 | 23.33° C | 55% | 1008.4 hPa | 0 mm | - | - | - |
| 1777284324 | 22.78° C | 58% | 1008.4 hPa | 0 mm | - | - | - |
| 1777283782 | 22.22° C | 61% | 1008.5 hPa | 0 mm | - | - | - |
| 1777283243 | 22.22° C | 61% | 1008.6 hPa | 0 mm | - | - | - |
* Rain latest hour (hover to see other rain measurements)
** Current wind speed in m/s (hover to see current wind gust speed)